createdAt,value
2019-01-29T00:00:22.295Z,990.65
2019-01-29T00:01:02.855Z,990.67
2019-01-29T00:01:43.411Z,990.66
2019-01-29T00:02:23.972Z,990.65
2019-01-29T00:03:04.529Z,990.68
2019-01-29T00:03:45.095Z,990.67
2019-01-29T00:04:25.647Z,990.69
2019-01-29T00:05:06.204Z,990.73
2019-01-29T00:05:46.786Z,990.71
2019-01-29T00:06:27.350Z,990.68
2019-01-29T00:07:07.919Z,990.7
2019-01-29T00:07:48.482Z,990.69
2019-01-29T00:08:29.046Z,990.73
2019-01-29T00:09:09.604Z,990.73
2019-01-29T00:09:50.174Z,990.73
2019-01-29T00:10:30.718Z,990.74
2019-01-29T00:11:11.275Z,990.76
2019-01-29T00:11:51.844Z,990.75
2019-01-29T00:12:32.439Z,990.78
2019-01-29T00:13:13.014Z,990.75
2019-01-29T00:13:53.570Z,990.82
2019-01-29T00:14:34.145Z,990.75
2019-01-29T00:15:14.709Z,990.8
2019-01-29T00:15:55.269Z,990.82
2019-01-29T00:16:35.831Z,990.82
2019-01-29T00:17:16.386Z,990.82
2019-01-29T00:17:56.956Z,990.79
2019-01-29T00:18:37.520Z,990.82
2019-01-29T00:19:18.079Z,990.85
2019-01-29T00:19:58.628Z,990.87
2019-01-29T00:20:39.184Z,990.87
2019-01-29T00:21:19.749Z,990.9
2019-01-29T00:22:00.304Z,990.9
2019-01-29T00:22:40.869Z,990.92
2019-01-29T00:23:21.418Z,990.89
2019-01-29T00:24:02.047Z,990.94
2019-01-29T00:24:42.543Z,990.95
2019-01-29T00:25:23.112Z,990.94
2019-01-29T00:26:03.658Z,990.95
2019-01-29T00:26:44.230Z,990.96
2019-01-29T00:27:24.794Z,991.01
2019-01-29T00:28:05.348Z,990.96
2019-01-29T00:28:45.908Z,991.03
2019-01-29T00:29:26.458Z,990.99
2019-01-29T00:30:07.034Z,991.05
2019-01-29T00:30:47.606Z,991.07
2019-01-29T00:31:28.164Z,991.07
2019-01-29T00:32:08.726Z,991.03
2019-01-29T00:32:49.295Z,991.12
2019-01-29T00:33:29.859Z,991.09
2019-01-29T00:34:10.418Z,991.12
2019-01-29T00:34:50.980Z,991.11
2019-01-29T00:35:31.519Z,991.11
2019-01-29T00:36:12.084Z,991.1
2019-01-29T00:36:52.654Z,991.12
2019-01-29T00:37:33.241Z,991.13
2019-01-29T00:38:13.841Z,991.13
2019-01-29T00:38:54.399Z,991.19
2019-01-29T00:39:34.945Z,991.16
2019-01-29T00:40:15.585Z,991.17
2019-01-29T00:40:56.146Z,991.22
2019-01-29T00:41:36.701Z,991.23
2019-01-29T00:42:17.253Z,991.23
2019-01-29T00:42:57.818Z,991.27
2019-01-29T00:43:38.382Z,991.26
2019-01-29T00:44:18.942Z,991.26
2019-01-29T00:44:59.555Z,991.22
2019-01-29T00:45:40.117Z,991.31
2019-01-29T00:46:20.711Z,991.26
2019-01-29T00:47:01.269Z,991.23
2019-01-29T00:47:41.818Z,991.27
2019-01-29T00:48:22.381Z,991.26
2019-01-29T00:49:02.947Z,991.28
2019-01-29T00:49:43.519Z,991.28
2019-01-29T00:50:24.082Z,991.29
2019-01-29T00:51:04.648Z,991.29
2019-01-29T00:51:45.227Z,991.32
2019-01-29T00:52:25.784Z,991.32
2019-01-29T00:53:06.346Z,991.36
2019-01-29T00:53:46.926Z,991.41
2019-01-29T00:54:27.474Z,991.38
2019-01-29T00:55:08.040Z,991.42
2019-01-29T00:55:48.592Z,991.41
2019-01-29T00:56:29.175Z,991.45
2019-01-29T00:57:09.733Z,991.48
2019-01-29T00:57:50.290Z,991.45
2019-01-29T00:58:30.844Z,991.46
2019-01-29T00:59:11.424Z,991.47
2019-01-29T00:59:52.442Z,991.52
2019-01-29T01:00:32.533Z,991.53
2019-01-29T01:01:13.095Z,991.5
2019-01-29T01:01:53.675Z,991.56
2019-01-29T01:02:34.287Z,991.55
2019-01-29T01:03:14.838Z,991.57
2019-01-29T01:03:55.476Z,991.57
2019-01-29T01:04:36.033Z,991.57
2019-01-29T01:05:16.591Z,991.61
2019-01-29T01:05:57.146Z,991.59
2019-01-29T01:06:37.713Z,991.64
2019-01-29T01:07:18.283Z,991.59
2019-01-29T01:07:58.854Z,991.66
2019-01-29T01:08:39.427Z,991.65
2019-01-29T01:09:19.989Z,991.66
2019-01-29T01:10:00.544Z,991.66
2019-01-29T01:10:41.121Z,991.66
2019-01-29T01:11:21.665Z,991.72
2019-01-29T01:12:02.225Z,991.7
2019-01-29T01:12:42.772Z,991.7
2019-01-29T01:13:23.336Z,991.72
2019-01-29T01:14:03.911Z,991.74
2019-01-29T01:14:44.483Z,991.77
2019-01-29T01:15:25.041Z,991.74
2019-01-29T01:16:05.582Z,991.77
2019-01-29T01:16:46.174Z,991.73
2019-01-29T01:17:26.733Z,991.76
2019-01-29T01:18:07.285Z,991.77
2019-01-29T01:18:47.848Z,991.79
2019-01-29T01:19:28.418Z,991.8
2019-01-29T01:20:08.979Z,991.84
2019-01-29T01:20:49.557Z,991.82
2019-01-29T01:21:30.109Z,991.86
2019-01-29T01:22:10.657Z,991.87
2019-01-29T01:22:51.540Z,991.82
2019-01-29T01:23:31.823Z,991.88
2019-01-29T01:24:12.372Z,991.92
2019-01-29T01:24:52.939Z,991.89
2019-01-29T01:25:33.516Z,991.94
2019-01-29T01:26:14.087Z,991.88
2019-01-29T01:26:54.650Z,991.92
2019-01-29T01:27:35.202Z,991.98
2019-01-29T01:28:15.794Z,991.97
2019-01-29T01:28:56.372Z,992
2019-01-29T01:29:36.939Z,991.97
2019-01-29T01:30:17.491Z,992.04
2019-01-29T01:30:58.040Z,992.01
2019-01-29T01:31:38.605Z,992.01
2019-01-29T01:32:19.151Z,992.06
2019-01-29T01:32:59.714Z,992.12
2019-01-29T01:33:40.292Z,992.08
2019-01-29T01:34:20.863Z,992.16
2019-01-29T01:35:01.427Z,992.1
2019-01-29T01:35:41.974Z,992.11
2019-01-29T01:36:22.537Z,992.1
2019-01-29T01:37:03.083Z,992.14
2019-01-29T01:37:43.647Z,992.13
2019-01-29T01:38:24.200Z,992.18
2019-01-29T01:39:04.771Z,992.1
2019-01-29T01:39:45.323Z,992.15
2019-01-29T01:40:25.870Z,992.11
2019-01-29T01:41:06.430Z,992.18
2019-01-29T01:41:47.014Z,992.21
2019-01-29T01:42:27.569Z,992.18
2019-01-29T01:43:08.137Z,992.2
2019-01-29T01:43:48.705Z,992.21
2019-01-29T01:44:29.256Z,992.25
2019-01-29T01:45:09.820Z,992.26
2019-01-29T01:45:50.363Z,992.24
2019-01-29T01:46:30.915Z,992.28
2019-01-29T01:47:11.478Z,992.26
2019-01-29T01:47:52.035Z,992.28
2019-01-29T01:48:32.588Z,992.25
2019-01-29T01:49:13.135Z,992.29
2019-01-29T01:49:53.692Z,992.27
2019-01-29T01:50:34.247Z,992.32
2019-01-29T01:51:14.815Z,992.34
2019-01-29T01:51:55.365Z,992.37
2019-01-29T01:52:35.938Z,992.35
2019-01-29T01:53:16.504Z,992.38
2019-01-29T01:53:57.087Z,992.36
2019-01-29T01:54:37.648Z,992.34
2019-01-29T01:55:18.199Z,992.42
2019-01-29T01:55:58.769Z,992.42
2019-01-29T01:56:39.317Z,992.37
2019-01-29T01:57:19.878Z,992.44
2019-01-29T01:58:00.454Z,992.45
2019-01-29T01:58:41.008Z,992.47
2019-01-29T01:59:21.580Z,992.43
2019-01-29T02:00:02.149Z,992.45
2019-01-29T02:00:42.708Z,992.52
2019-01-29T02:01:23.268Z,992.49
2019-01-29T02:02:03.809Z,992.52
2019-01-29T02:02:44.379Z,992.53
2019-01-29T02:03:24.940Z,992.53
2019-01-29T02:04:05.496Z,992.57
2019-01-29T02:04:46.074Z,992.62
2019-01-29T02:05:26.635Z,992.59
2019-01-29T02:06:07.190Z,992.61
2019-01-29T02:06:47.745Z,992.61
2019-01-29T02:07:28.313Z,992.6
2019-01-29T02:08:08.856Z,992.67
2019-01-29T02:08:49.401Z,992.68
2019-01-29T02:09:29.965Z,992.68
2019-01-29T02:10:10.524Z,992.7
2019-01-29T02:10:51.074Z,992.63
2019-01-29T02:11:31.650Z,992.71
2019-01-29T02:12:12.218Z,992.64
2019-01-29T02:12:52.774Z,992.68
2019-01-29T02:13:33.337Z,992.67
2019-01-29T02:14:13.894Z,992.67
2019-01-29T02:14:54.476Z,992.71
2019-01-29T02:15:35.026Z,992.71
2019-01-29T02:16:15.617Z,992.71
2019-01-29T02:16:56.184Z,992.72
2019-01-29T02:17:36.788Z,992.72
2019-01-29T02:18:17.360Z,992.78
2019-01-29T02:18:57.929Z,992.79
2019-01-29T02:19:38.514Z,992.77
2019-01-29T02:20:19.088Z,992.79
2019-01-29T02:20:59.645Z,992.8
2019-01-29T02:21:40.207Z,992.82
2019-01-29T02:22:20.774Z,992.87
2019-01-29T02:23:07.696Z,992.8
2019-01-29T02:23:42.002Z,992.83
2019-01-29T02:24:22.562Z,992.87
2019-01-29T02:25:03.121Z,992.89
2019-01-29T02:25:43.662Z,992.92
2019-01-29T02:26:24.239Z,992.92
2019-01-29T02:27:04.798Z,992.92
2019-01-29T02:27:45.343Z,992.92
2019-01-29T02:28:25.895Z,992.92
2019-01-29T02:29:06.499Z,992.91
2019-01-29T02:29:47.056Z,992.95
2019-01-29T02:30:27.616Z,992.95
2019-01-29T02:31:08.175Z,992.92
2019-01-29T02:31:48.752Z,992.94
2019-01-29T02:32:29.318Z,993
2019-01-29T02:33:09.864Z,992.97
2019-01-29T02:33:50.420Z,993.03
2019-01-29T02:34:30.990Z,993.06
2019-01-29T02:35:11.570Z,993.06
2019-01-29T02:35:52.132Z,993.08
2019-01-29T02:36:32.693Z,993.06
2019-01-29T02:37:13.262Z,993.13
2019-01-29T02:37:53.865Z,993.15
2019-01-29T02:38:34.430Z,993.16
2019-01-29T02:39:14.985Z,993.11
2019-01-29T02:39:55.536Z,993.14
2019-01-29T02:40:36.120Z,993.14
2019-01-29T02:41:16.679Z,993.13
2019-01-29T02:41:57.230Z,993.13
2019-01-29T02:42:37.784Z,993.12
2019-01-29T02:43:18.327Z,993.15
2019-01-29T02:43:58.885Z,993.16
2019-01-29T02:44:39.447Z,993.21
2019-01-29T02:45:20.023Z,993.22
2019-01-29T02:46:00.578Z,993.21
2019-01-29T02:46:41.124Z,993.22
2019-01-29T02:47:21.720Z,993.25
2019-01-29T02:48:02.279Z,993.23
2019-01-29T02:48:42.832Z,993.19
2019-01-29T02:49:23.394Z,993.25
2019-01-29T02:50:03.949Z,993.26
2019-01-29T02:50:44.532Z,993.3
2019-01-29T02:51:25.109Z,993.25
2019-01-29T02:52:05.660Z,993.3
2019-01-29T02:52:46.235Z,993.3
2019-01-29T02:53:26.769Z,993.41
2019-01-29T02:54:07.352Z,993.27
2019-01-29T02:54:47.900Z,993.33
2019-01-29T02:55:28.454Z,993.34
2019-01-29T02:56:09.007Z,993.4
2019-01-29T02:56:49.581Z,993.41
2019-01-29T02:57:30.141Z,993.4
2019-01-29T03:03:32.486Z,993.41
2019-01-29T03:04:13.063Z,993.48
2019-01-29T03:04:53.689Z,993.48
2019-01-29T03:05:34.155Z,993.5
2019-01-29T03:06:14.705Z,993.5
2019-01-29T03:06:55.252Z,993.59
2019-01-29T03:07:35.803Z,993.6
2019-01-29T03:08:16.341Z,993.58
2019-01-29T03:08:56.907Z,993.65
2019-01-29T03:09:37.462Z,993.63
2019-01-29T03:10:18.041Z,993.65
2019-01-29T03:10:58.600Z,993.67
2019-01-29T03:11:39.152Z,993.71
2019-01-29T03:12:19.719Z,993.72
2019-01-29T03:13:00.275Z,993.69
2019-01-29T03:13:40.837Z,993.71
2019-01-29T03:14:21.415Z,993.73
2019-01-29T03:15:02.002Z,993.76
2019-01-29T03:15:42.532Z,993.73
2019-01-29T03:16:23.077Z,993.76
2019-01-29T03:17:03.639Z,993.78
2019-01-29T03:17:44.196Z,993.87
2019-01-29T03:18:24.772Z,993.86
2019-01-29T03:19:05.356Z,993.85
2019-01-29T03:19:45.901Z,993.88
2019-01-29T03:20:26.445Z,993.86
2019-01-29T03:21:07.005Z,993.91
2019-01-29T03:21:47.571Z,993.92
2019-01-29T03:22:28.130Z,993.91
2019-01-29T03:23:08.701Z,993.92
2019-01-29T03:23:49.262Z,993.96
2019-01-29T03:24:29.816Z,993.95
2019-01-29T03:25:10.374Z,993.97
2019-01-29T03:25:50.932Z,993.99
2019-01-29T03:26:31.492Z,993.99
2019-01-29T03:27:12.047Z,994.03
2019-01-29T03:27:52.596Z,993.96
2019-01-29T03:28:33.166Z,993.95
2019-01-29T03:29:13.721Z,994.01
2019-01-29T03:29:54.301Z,994.04
2019-01-29T03:30:34.887Z,994.02
2019-01-29T03:31:15.455Z,994.05
2019-01-29T03:31:56.019Z,994.04
2019-01-29T03:32:36.561Z,994.08
2019-01-29T03:33:17.121Z,994.11
2019-01-29T03:33:57.699Z,994.08
2019-01-29T03:34:38.273Z,994.1
2019-01-29T03:35:18.808Z,994.11
2019-01-29T03:35:59.389Z,994.14
2019-01-29T03:36:39.952Z,994.19
2019-01-29T03:37:20.518Z,994.17
2019-01-29T03:38:01.083Z,994.16
2019-01-29T03:38:41.641Z,994.19
2019-01-29T03:39:22.205Z,994.2
2019-01-29T03:40:02.765Z,994.22
2019-01-29T03:40:43.315Z,994.24
2019-01-29T03:41:23.888Z,994.23
2019-01-29T03:42:04.441Z,994.25
2019-01-29T03:42:45.008Z,994.27
2019-01-29T03:43:25.568Z,994.26
2019-01-29T03:44:06.140Z,994.27
2019-01-29T03:44:46.696Z,994.3
2019-01-29T03:45:27.259Z,994.3
2019-01-29T03:46:07.802Z,994.34
2019-01-29T03:46:48.365Z,994.32
2019-01-29T03:47:28.921Z,994.36
2019-01-29T03:48:09.715Z,994.32
2019-01-29T03:48:50.283Z,994.33
2019-01-29T03:49:30.855Z,994.34
2019-01-29T03:50:11.424Z,994.46
2019-01-29T03:50:51.978Z,994.32
2019-01-29T03:51:32.524Z,994.42
2019-01-29T03:52:13.113Z,994.4
2019-01-29T03:52:53.702Z,994.46
2019-01-29T03:53:38.032Z,994.46
2019-01-29T03:54:14.801Z,994.47
2019-01-29T03:54:55.353Z,994.46
2019-01-29T03:55:35.923Z,994.48
2019-01-29T03:56:16.484Z,994.48
2019-01-29T03:56:57.041Z,994.49
2019-01-29T03:57:37.604Z,994.52
2019-01-29T03:58:18.207Z,994.58
2019-01-29T03:58:58.757Z,994.51
2019-01-29T03:59:39.312Z,994.53
2019-01-29T04:00:19.873Z,994.56
2019-01-29T04:01:00.443Z,994.59
2019-01-29T04:01:40.998Z,994.61
2019-01-29T04:02:21.582Z,994.61
2019-01-29T04:03:02.135Z,994.63
2019-01-29T04:03:42.695Z,994.62
2019-01-29T04:04:23.260Z,994.66
2019-01-29T04:05:03.807Z,994.64
2019-01-29T04:05:44.373Z,994.64
2019-01-29T04:06:24.943Z,994.61
2019-01-29T04:07:05.502Z,994.7
2019-01-29T04:07:46.053Z,994.69
2019-01-29T04:08:26.624Z,994.68
2019-01-29T04:09:07.221Z,994.67
2019-01-29T04:09:47.771Z,994.7
2019-01-29T04:10:28.337Z,994.71
2019-01-29T04:11:08.914Z,994.71
2019-01-29T04:11:49.472Z,994.73
2019-01-29T04:12:30.029Z,994.82
2019-01-29T04:13:10.600Z,994.76
2019-01-29T04:13:51.165Z,994.77
2019-01-29T04:14:31.739Z,994.77
2019-01-29T04:15:12.294Z,994.82
2019-01-29T04:15:52.886Z,994.82
2019-01-29T04:16:33.432Z,994.84
2019-01-29T04:17:14.375Z,994.8
2019-01-29T04:17:54.545Z,994.85
2019-01-29T04:18:35.114Z,994.83
2019-01-29T04:19:15.663Z,994.84
2019-01-29T04:19:56.219Z,994.88
2019-01-29T04:20:36.775Z,994.93
2019-01-29T04:21:17.396Z,994.92
2019-01-29T04:21:57.989Z,994.88
2019-01-29T04:22:38.550Z,994.92
2019-01-29T04:23:19.117Z,994.9
2019-01-29T04:23:59.680Z,994.94
2019-01-29T04:24:40.226Z,994.98
2019-01-29T04:25:20.791Z,994.99
2019-01-29T04:26:01.356Z,994.99
2019-01-29T04:26:41.912Z,995.05
2019-01-29T04:27:22.484Z,995.1
2019-01-29T04:28:03.053Z,995.04
2019-01-29T04:28:43.614Z,995.06
2019-01-29T04:29:24.171Z,995.1
2019-01-29T04:30:04.731Z,995.09
2019-01-29T04:30:45.305Z,995.15
2019-01-29T04:31:25.945Z,995.12
2019-01-29T04:32:06.510Z,995.16
2019-01-29T04:32:47.083Z,995.15
2019-01-29T04:33:27.645Z,995.12
2019-01-29T04:34:08.204Z,995.19
2019-01-29T04:34:48.761Z,995.14
2019-01-29T04:35:29.316Z,995.16
2019-01-29T04:36:09.870Z,995.14
2019-01-29T04:36:50.437Z,995.19
2019-01-29T04:37:30.994Z,995.21
2019-01-29T04:38:11.568Z,995.17
2019-01-29T04:38:52.155Z,995.24
2019-01-29T04:39:32.718Z,995.16
2019-01-29T04:40:13.281Z,995.18
2019-01-29T04:40:53.833Z,995.21
2019-01-29T04:41:34.397Z,995.2
2019-01-29T04:42:14.959Z,995.19
2019-01-29T04:42:55.526Z,995.22
2019-01-29T04:43:36.096Z,995.3
2019-01-29T04:44:16.652Z,995.27
2019-01-29T04:44:57.216Z,995.25
2019-01-29T04:45:37.782Z,995.28
2019-01-29T04:46:18.334Z,995.26
2019-01-29T04:46:58.898Z,995.31
2019-01-29T04:47:39.473Z,995.35
2019-01-29T04:48:20.032Z,995.32
2019-01-29T04:49:00.593Z,995.29
2019-01-29T04:49:41.139Z,995.42
2019-01-29T04:50:21.690Z,995.44
2019-01-29T04:51:02.238Z,995.38
2019-01-29T04:51:42.811Z,995.4
2019-01-29T04:52:23.372Z,995.35
2019-01-29T04:53:03.928Z,995.41
2019-01-29T04:53:44.483Z,995.36
2019-01-29T04:54:25.040Z,995.5
2019-01-29T04:55:05.586Z,995.43
2019-01-29T04:55:46.193Z,995.42
2019-01-29T04:56:26.748Z,995.46
2019-01-29T04:57:07.300Z,995.46
2019-01-29T04:57:47.867Z,995.46
2019-01-29T04:58:28.441Z,995.47
2019-01-29T04:59:08.994Z,995.5
2019-01-29T04:59:49.585Z,995.44
2019-01-29T05:00:30.121Z,995.46
2019-01-29T05:01:10.672Z,995.45
2019-01-29T05:01:51.239Z,995.47
2019-01-29T05:02:31.799Z,995.46
2019-01-29T05:03:12.351Z,995.5
2019-01-29T05:03:52.898Z,995.55
2019-01-29T05:04:33.451Z,995.55
2019-01-29T05:05:14.009Z,995.55
2019-01-29T05:05:54.565Z,995.56
2019-01-29T05:06:35.114Z,995.56
2019-01-29T05:07:15.686Z,995.58
2019-01-29T05:07:56.250Z,995.56
2019-01-29T05:08:36.821Z,995.57
2019-01-29T05:09:17.373Z,995.56
2019-01-29T05:09:58.097Z,995.54
2019-01-29T05:10:38.698Z,995.58
2019-01-29T05:11:19.246Z,995.65
2019-01-29T05:11:59.794Z,995.6
2019-01-29T05:12:40.364Z,995.6
2019-01-29T05:13:20.917Z,995.62
2019-01-29T05:14:01.478Z,995.63
2019-01-29T05:14:42.025Z,995.69
2019-01-29T05:15:22.584Z,995.73
2019-01-29T05:16:03.171Z,995.66
2019-01-29T05:16:43.725Z,995.68
2019-01-29T05:17:24.279Z,995.69
2019-01-29T05:18:04.842Z,995.7
2019-01-29T05:18:45.405Z,995.71
2019-01-29T05:19:25.976Z,995.78
2019-01-29T05:20:06.531Z,995.77
2019-01-29T05:20:47.080Z,995.77
2019-01-29T05:21:27.642Z,995.79
2019-01-29T05:22:08.198Z,995.76
2019-01-29T05:22:48.762Z,995.76
2019-01-29T05:23:29.325Z,995.78
2019-01-29T05:24:09.891Z,995.77
2019-01-29T05:24:50.458Z,995.8
2019-01-29T05:25:31.010Z,995.83
2019-01-29T05:26:11.576Z,995.83
2019-01-29T05:26:52.134Z,995.83
2019-01-29T05:27:32.692Z,995.79
2019-01-29T05:28:13.251Z,995.87
2019-01-29T05:28:53.821Z,995.82
2019-01-29T05:29:34.372Z,995.88
2019-01-29T05:30:14.917Z,995.86
2019-01-29T05:30:55.468Z,995.89
2019-01-29T05:31:36.026Z,995.88
2019-01-29T05:32:16.594Z,995.87
2019-01-29T05:32:57.155Z,995.89
2019-01-29T05:33:37.722Z,995.88
2019-01-29T05:34:18.277Z,995.87
2019-01-29T05:34:58.889Z,995.88
2019-01-29T05:35:39.462Z,995.87
2019-01-29T05:36:20.008Z,995.92
2019-01-29T05:37:00.564Z,995.95
2019-01-29T05:37:41.123Z,995.87
2019-01-29T05:38:21.682Z,995.99
2019-01-29T05:39:02.235Z,995.92
2019-01-29T05:39:42.780Z,995.92
2019-01-29T05:40:23.339Z,995.95
2019-01-29T05:41:03.908Z,995.98
2019-01-29T05:41:44.473Z,995.98
2019-01-29T05:42:25.044Z,996.03
2019-01-29T05:43:05.605Z,995.98
2019-01-29T05:43:46.161Z,996.02
2019-01-29T05:44:26.717Z,996.01
2019-01-29T05:45:07.270Z,996.02
2019-01-29T05:45:47.825Z,996.03
2019-01-29T05:46:28.384Z,996.07
2019-01-29T05:47:08.963Z,996.11
2019-01-29T05:47:49.517Z,996.1
2019-01-29T05:48:30.071Z,996.07
2019-01-29T05:49:10.627Z,996.1
2019-01-29T05:49:51.283Z,996.13
2019-01-29T05:50:31.874Z,996.14
2019-01-29T05:51:13.270Z,996.15
2019-01-29T05:51:53.882Z,996.14
2019-01-29T05:52:34.446Z,996.14
2019-01-29T05:53:15.006Z,996.25
2019-01-29T05:53:55.573Z,996.23
2019-01-29T05:54:36.135Z,996.17
2019-01-29T05:55:16.689Z,996.27
2019-01-29T05:55:57.255Z,996.26
2019-01-29T05:56:37.850Z,996.2
2019-01-29T05:57:18.413Z,996.26
2019-01-29T05:57:58.973Z,996.24
2019-01-29T05:58:39.551Z,996.31
2019-01-29T05:59:20.111Z,996.31
2019-01-29T06:00:00.674Z,996.31
2019-01-29T06:00:41.275Z,996.32
2019-01-29T06:01:21.830Z,996.31
2019-01-29T06:02:02.394Z,996.32
2019-01-29T06:02:42.963Z,996.34
2019-01-29T06:03:23.523Z,996.35
2019-01-29T06:04:04.078Z,996.31
2019-01-29T06:04:44.660Z,996.35
2019-01-29T06:05:25.227Z,996.41
2019-01-29T06:06:05.780Z,996.37
2019-01-29T06:06:46.333Z,996.38
2019-01-29T06:07:26.890Z,996.41
2019-01-29T06:08:07.474Z,996.42
2019-01-29T06:08:48.040Z,996.43
2019-01-29T06:09:28.641Z,996.41
2019-01-29T06:10:09.202Z,996.49
2019-01-29T06:10:49.755Z,996.44
2019-01-29T06:11:30.319Z,996.52
2019-01-29T06:12:10.884Z,996.45
2019-01-29T06:12:51.444Z,996.42
2019-01-29T06:13:32.021Z,996.47
2019-01-29T06:14:12.565Z,996.49
2019-01-29T06:14:53.125Z,996.48
2019-01-29T06:15:33.695Z,996.49
2019-01-29T06:16:14.252Z,996.46
2019-01-29T06:16:54.803Z,996.47
2019-01-29T06:17:35.374Z,996.52
2019-01-29T06:18:15.951Z,996.58
2019-01-29T06:18:56.507Z,996.58
2019-01-29T06:19:37.080Z,996.55
2019-01-29T06:20:18.470Z,996.58
2019-01-29T06:20:58.236Z,996.59
2019-01-29T06:21:38.789Z,996.58
2019-01-29T06:22:19.358Z,996.61
2019-01-29T06:22:59.924Z,996.63
2019-01-29T06:23:40.465Z,996.63
2019-01-29T06:24:25.709Z,996.65
2019-01-29T06:25:01.574Z,996.69
2019-01-29T06:25:42.128Z,996.68
2019-01-29T06:26:22.703Z,996.71
2019-01-29T06:27:03.249Z,996.66
2019-01-29T06:27:43.800Z,996.67
2019-01-29T06:28:24.409Z,996.7
2019-01-29T06:29:05.020Z,996.69
2019-01-29T06:29:45.658Z,996.75
2019-01-29T06:30:26.241Z,996.77
2019-01-29T06:31:06.805Z,996.8
2019-01-29T06:31:47.611Z,996.8
2019-01-29T06:32:28.153Z,996.87
2019-01-29T06:33:08.784Z,996.84
2019-01-29T06:33:49.428Z,996.89
2019-01-29T06:34:30.022Z,996.85
2019-01-29T06:35:10.724Z,996.88
2019-01-29T06:35:51.346Z,996.94
2019-01-29T06:36:31.905Z,996.93
2019-01-29T06:37:12.507Z,996.98
2019-01-29T06:37:53.057Z,996.97
2019-01-29T06:38:33.636Z,997.03
2019-01-29T06:39:14.187Z,997.01
2019-01-29T06:39:54.763Z,997
2019-01-29T06:40:35.344Z,997.03
2019-01-29T06:41:15.911Z,997.01
2019-01-29T06:41:56.475Z,997.01
2019-01-29T06:42:37.035Z,997.06
2019-01-29T06:43:17.585Z,997.04
2019-01-29T06:43:58.191Z,997.08
2019-01-29T06:44:38.855Z,997.08
2019-01-29T06:45:19.404Z,997.1
2019-01-29T06:45:59.967Z,997.11
2019-01-29T06:46:40.517Z,997.13
2019-01-29T06:47:21.068Z,997.17
2019-01-29T06:48:01.630Z,997.19
2019-01-29T06:48:42.354Z,997.2
2019-01-29T06:49:22.935Z,997.22
2019-01-29T06:50:03.545Z,997.2
2019-01-29T06:50:44.122Z,997.21
2019-01-29T06:51:24.682Z,997.21
2019-01-29T06:52:05.279Z,997.27
2019-01-29T06:52:45.872Z,997.26
2019-01-29T06:53:26.439Z,997.3
2019-01-29T06:54:07.000Z,997.29
2019-01-29T06:54:47.547Z,997.29
2019-01-29T06:55:28.100Z,997.3
2019-01-29T06:56:08.652Z,997.34
2019-01-29T06:56:49.220Z,997.4
2019-01-29T06:57:29.810Z,997.37
2019-01-29T06:58:10.375Z,997.4
2019-01-29T06:58:50.927Z,997.42
2019-01-29T06:59:31.517Z,997.47
2019-01-29T07:00:12.091Z,997.39
2019-01-29T07:00:52.668Z,997.51
2019-01-29T07:01:33.250Z,997.53
2019-01-29T07:02:13.807Z,997.45
2019-01-29T07:02:54.387Z,997.52
2019-01-29T07:03:34.963Z,997.5
2019-01-29T07:04:15.547Z,997.49
2019-01-29T07:04:56.267Z,997.55
2019-01-29T07:05:37.072Z,997.5
2019-01-29T07:06:18.588Z,997.55
2019-01-29T07:06:59.155Z,997.55
2019-01-29T07:07:39.722Z,997.55
2019-01-29T07:08:20.382Z,997.55
2019-01-29T07:09:01.015Z,997.54
2019-01-29T07:09:41.672Z,997.53
2019-01-29T07:10:22.286Z,997.56
2019-01-29T07:11:02.867Z,997.54
2019-01-29T07:11:43.424Z,997.59
2019-01-29T07:12:24.537Z,997.61
2019-01-29T07:13:05.357Z,997.57
2019-01-29T07:13:46.425Z,997.57
2019-01-29T07:14:27.586Z,997.62
2019-01-29T07:15:08.333Z,997.68
2019-01-29T07:15:48.900Z,997.63
2019-01-29T07:16:29.456Z,997.65
2019-01-29T07:17:10.023Z,997.63
2019-01-29T07:17:50.599Z,997.65
2019-01-29T07:18:31.176Z,997.64
2019-01-29T07:19:11.726Z,997.7
2019-01-29T07:19:52.289Z,997.66
2019-01-29T07:20:32.836Z,997.64
2019-01-29T07:21:13.423Z,997.72
2019-01-29T07:21:53.986Z,997.71
2019-01-29T07:22:34.526Z,997.72
2019-01-29T07:23:15.122Z,997.75
2019-01-29T07:23:55.960Z,997.74
2019-01-29T07:24:42.567Z,997.74
2019-01-29T07:25:17.128Z,997.72
2019-01-29T07:25:57.692Z,997.72
2019-01-29T07:26:38.241Z,997.76
2019-01-29T07:27:18.800Z,997.77
2019-01-29T07:27:59.378Z,997.79
2019-01-29T07:28:39.965Z,997.77
2019-01-29T07:29:20.547Z,997.77
2019-01-29T07:30:01.127Z,997.8
2019-01-29T07:30:41.705Z,997.79
2019-01-29T07:31:22.267Z,997.78
2019-01-29T07:32:02.847Z,997.82
2019-01-29T07:32:43.403Z,997.82
2019-01-29T07:33:23.980Z,997.84
2019-01-29T07:34:04.543Z,997.83
2019-01-29T07:34:45.110Z,997.82
2019-01-29T07:35:25.697Z,997.8
2019-01-29T07:36:06.288Z,997.8
2019-01-29T07:36:46.848Z,997.9
2019-01-29T07:37:27.423Z,997.81
2019-01-29T07:38:08.010Z,997.86
2019-01-29T07:38:48.565Z,997.88
2019-01-29T07:39:29.146Z,997.91
2019-01-29T07:40:09.766Z,997.94
2019-01-29T07:40:50.307Z,997.91
2019-01-29T07:41:30.946Z,997.91
2019-01-29T07:42:11.439Z,997.88
2019-01-29T07:42:52.029Z,997.85
2019-01-29T07:43:32.590Z,997.91
2019-01-29T07:44:13.139Z,997.91
2019-01-29T07:44:53.722Z,997.92
2019-01-29T07:45:34.274Z,997.95
2019-01-29T07:46:14.825Z,997.9
2019-01-29T07:46:55.372Z,997.93
2019-01-29T07:47:35.919Z,997.93
2019-01-29T07:48:16.727Z,997.97
2019-01-29T07:48:57.343Z,997.94
2019-01-29T07:49:37.925Z,997.93
2019-01-29T07:50:18.482Z,997.96
2019-01-29T07:50:59.052Z,997.93
2019-01-29T07:51:39.653Z,997.94
2019-01-29T07:52:20.224Z,997.92
2019-01-29T07:53:00.774Z,997.91
2019-01-29T07:53:41.347Z,997.9
2019-01-29T07:54:21.914Z,997.9
2019-01-29T07:55:02.479Z,997.9
2019-01-29T07:55:43.033Z,997.91
2019-01-29T07:56:23.584Z,997.92
2019-01-29T07:57:04.132Z,997.98
2019-01-29T07:57:44.685Z,997.99
2019-01-29T07:58:25.248Z,998.01
2019-01-29T07:59:05.844Z,998.04
2019-01-29T07:59:46.401Z,998.03
2019-01-29T08:00:26.969Z,998.02
2019-01-29T08:01:07.543Z,998
2019-01-29T08:01:48.102Z,998.01
2019-01-29T08:02:28.673Z,998.01
2019-01-29T08:03:09.254Z,998.02
2019-01-29T08:03:49.832Z,998.04
2019-01-29T08:04:30.379Z,998.06
2019-01-29T08:05:10.936Z,998.09
2019-01-29T08:05:51.499Z,998.07
2019-01-29T08:06:32.047Z,998.08
2019-01-29T08:07:12.612Z,998.08
2019-01-29T08:07:53.181Z,998.03
2019-01-29T08:08:33.720Z,998.02
2019-01-29T08:09:14.273Z,998.05
2019-01-29T08:09:54.833Z,998.06
2019-01-29T08:10:35.420Z,998.16
2019-01-29T08:11:16.001Z,998.16
2019-01-29T08:11:56.559Z,998.18
2019-01-29T08:12:37.159Z,998.12
2019-01-29T08:13:17.722Z,998.18
2019-01-29T08:13:58.405Z,998.15
2019-01-29T08:14:39.013Z,998.18
2019-01-29T08:15:19.720Z,998.14
2019-01-29T08:16:00.278Z,998.13
2019-01-29T08:16:40.836Z,998.17
2019-01-29T08:17:21.542Z,998.18
2019-01-29T08:18:02.094Z,998.18
2019-01-29T08:18:42.686Z,998.17
2019-01-29T08:19:23.226Z,998.16
2019-01-29T08:20:03.777Z,998.16
2019-01-29T08:20:44.338Z,998.21
2019-01-29T08:21:24.892Z,998.21
2019-01-29T08:22:05.456Z,998.23
2019-01-29T08:22:46.018Z,998.28
2019-01-29T08:23:26.590Z,998.29
2019-01-29T08:24:07.160Z,998.26
2019-01-29T08:24:51.903Z,998.29
2019-01-29T08:25:28.286Z,998.3
2019-01-29T08:26:09.089Z,998.31
2019-01-29T08:26:49.914Z,998.3
2019-01-29T08:27:30.422Z,998.29
2019-01-29T08:28:11.003Z,998.31
2019-01-29T08:28:51.555Z,998.36
2019-01-29T08:29:32.108Z,998.35
2019-01-29T08:30:12.671Z,998.34
2019-01-29T08:30:53.244Z,998.37
2019-01-29T08:31:33.819Z,998.38
2019-01-29T08:32:14.386Z,998.47
2019-01-29T08:32:54.955Z,998.47
2019-01-29T08:33:35.537Z,998.46